Time;durP1;ratioP1;P1;durP2;ratioP2;P2;SDS_P1;SDS_P2;PMS_P1;PMS_P2;Temp;Humidity;BMP_temperature;BMP_pressure;BME280_temperature;BME280_humidity;BME280_pressure;Samples;Min_cycle;Max_cycle;Signal;HPM_P1;HPM_P2
2024/01/03 00:02:20;;;;;;;7.68;1.98;;;10.10;99.90;;;;;;5043399;28;20042;-80
2024/01/03 00:04:46;;;;;;;8.13;2.13;;;10.10;99.90;;;;;;5062582;28;20064;-80
2024/01/03 00:07:13;;;;;;;10.43;2.55;;;10.10;99.90;;;;;;5058485;28;20116;-79
2024/01/03 00:09:42;;;;;;;8.98;1.80;;;10.00;99.90;;;;;;5030465;28;20080;-79
2024/01/03 00:12:12;;;;;;;8.18;1.88;;;9.90;99.90;;;;;;5028941;28;20067;-79
2024/01/03 00:14:38;;;;;;;12.68;2.35;;;9.90;99.90;;;;;;5044696;28;20552;-79
2024/01/03 00:17:04;;;;;;;8.38;2.00;;;9.90;99.90;;;;;;5027219;28;20117;-79
2024/01/03 00:19:33;;;;;;;8.93;1.60;;;9.80;99.90;;;;;;5019855;28;20071;-80
2024/01/03 00:22:00;;;;;;;7.40;1.75;;;9.80;99.90;;;;;;5027258;28;20076;-80
2024/01/03 00:24:26;;;;;;;8.30;1.83;;;9.80;99.90;;;;;;5030999;28;20060;-80
2024/01/03 00:26:52;;;;;;;7.05;1.88;;;9.70;99.90;;;;;;5026925;28;20476;-80
2024/01/03 00:29:38;;;;;;;8.18;1.80;;;9.70;99.90;;;;;;5027702;28;20060;-80
2024/01/03 00:32:05;;;;;;;8.52;1.90;;;9.70;99.90;;;;;;5038856;28;20046;-79
2024/01/03 00:34:40;;;;;;;8.02;2.00;;;9.60;99.90;;;;;;5026147;28;20140;-80
2024/01/03 00:37:20;;;;;;;6.03;1.75;;;9.60;99.90;;;;;;5023823;28;20104;-79
2024/01/03 00:39:46;;;;;;;11.32;2.10;;;9.50;99.90;;;;;;5028871;28;20087;-79
2024/01/03 00:42:12;;;;;;;6.07;1.52;;;9.40;99.90;;;;;;5029102;28;20081;-80
2024/01/03 00:44:37;;;;;;;8.95;1.77;;;9.40;99.90;;;;;;5032521;28;20083;-79
2024/01/03 00:47:04;;;;;;;6.50;1.35;;;9.40;99.90;;;;;;5026645;28;20049;-79
2024/01/03 00:49:30;;;;;;;6.13;1.40;;;9.50;99.90;;;;;;5025418;28;20064;-79
2024/01/03 00:51:56;;;;;;;7.15;1.40;;;9.40;99.90;;;;;;5019814;28;20467;-79
2024/01/03 00:54:23;;;;;;;7.75;1.60;;;9.40;99.90;;;;;;5022770;28;20048;-80
2024/01/03 00:56:50;;;;;;;6.78;1.50;;;9.30;99.90;;;;;;5027501;28;20056;-79
2024/01/03 00:59:17;;;;;;;11.02;1.95;;;9.30;99.90;;;;;;5022906;28;20612;-79
2024/01/03 01:01:44;;;;;;;7.60;1.88;;;9.40;99.90;;;;;;5026501;28;20104;-79
2024/01/03 01:04:10;;;;;;;7.88;1.73;;;9.30;99.90;;;;;;5022151;28;20113;-79
2024/01/03 01:06:36;;;;;;;8.30;1.80;;;9.40;99.90;;;;;;5024544;28;20540;-79
2024/01/03 01:09:04;;;;;;;8.75;1.85;;;9.40;99.90;;;;;;5022225;28;20044;-79
2024/01/03 01:11:32;;;;;;;8.48;1.92;;;9.30;99.90;;;;;;5022685;28;20044;-79
2024/01/03 01:13:58;;;;;;;10.88;2.33;;;9.40;99.90;;;;;;5018686;28;20049;-79
2024/01/03 01:16:23;;;;;;;11.25;1.95;;;9.30;99.90;;;;;;5052239;28;20048;-79
2024/01/03 01:18:49;;;;;;;11.35;2.25;;;9.30;99.90;;;;;;5027701;28;20374;-79
2024/01/03 01:21:14;;;;;;;10.48;2.42;;;9.30;99.90;;;;;;5033518;28;20038;-79
2024/01/03 01:23:42;;;;;;;11.13;2.10;;;9.30;99.90;;;;;;5029049;28;20037;-78
2024/01/03 01:26:08;;;;;;;7.47;2.20;;;9.20;99.90;;;;;;5043856;28;20045;-79
2024/01/03 01:28:34;;;;;;;9.15;2.08;;;9.20;99.90;;;;;;5026462;28;20029;-79
2024/01/03 01:30:59;;;;;;;3.38;0.60;;;9.20;99.90;;;;;;5055488;28;20107;-79
2024/01/03 01:33:25;;;;;;;8.70;1.15;;;9.20;99.90;;;;;;5044434;28;20044;-79
2024/01/03 01:35:51;;;;;;;9.75;2.00;;;9.20;99.90;;;;;;5023813;28;20041;-79
2024/01/03 01:38:16;;;;;;;7.00;1.75;;;9.10;99.90;;;;;;5031193;28;20663;-79
2024/01/03 01:40:42;;;;;;;7.93;2.10;;;9.10;99.90;;;;;;5035735;28;20048;-79
2024/01/03 01:43:08;;;;;;;11.02;1.90;;;9.10;99.90;;;;;;5016742;28;20048;-79
2024/01/03 01:45:34;;;;;;;9.52;2.15;;;9.10;99.90;;;;;;5057698;28;20072;-79
2024/01/03 01:48:00;;;;;;;9.25;1.80;;;9.10;99.90;;;;;;5028340;28;20038;-80
2024/01/03 01:50:26;;;;;;;9.40;2.17;;;9.20;99.90;;;;;;5026748;28;20049;-80
2024/01/03 01:52:53;;;;;;;9.30;2.00;;;9.20;99.90;;;;;;5029933;28;20103;-79
2024/01/03 01:55:20;;;;;;;10.10;2.08;;;9.20;99.90;;;;;;5025602;28;20571;-79
2024/01/03 01:57:47;;;;;;;6.45;1.65;;;9.30;99.90;;;;;;5025718;28;20048;-79
2024/01/03 02:00:13;;;;;;;7.37;1.67;;;9.30;99.90;;;;;;5028077;28;20048;-79
2024/01/03 02:02:41;;;;;;;5.65;1.60;;;9.20;99.90;;;;;;5025698;28;20061;-79
2024/01/03 02:05:09;;;;;;;7.05;1.42;;;9.30;99.90;;;;;;5024539;28;20138;-79
2024/01/03 02:07:35;;;;;;;1.55;0.50;;;9.30;99.90;;;;;;5019344;28;20053;-79
2024/01/03 02:10:01;;;;;;;7.07;1.48;;;9.30;99.90;;;;;;5025145;28;20493;-79
2024/01/03 02:12:30;;;;;;;4.82;1.40;;;9.30;99.90;;;;;;5024581;28;20049;-79
2024/01/03 02:14:56;;;;;;;7.22;1.60;;;9.30;99.90;;;;;;5024621;28;20041;-79
2024/01/03 02:17:22;;;;;;;6.55;1.50;;;9.30;99.90;;;;;;5021410;28;20447;-79
2024/01/03 02:19:48;;;;;;;6.63;1.38;;;9.30;99.90;;;;;;5020229;28;20045;-79
2024/01/03 02:22:14;;;;;;;7.35;1.55;;;9.30;99.90;;;;;;5025158;28;20053;-79
2024/01/03 02:24:39;;;;;;;7.80;1.70;;;9.30;99.90;;;;;;5021904;28;20045;-79
2024/01/03 02:27:05;;;;;;;8.20;1.70;;;9.20;99.90;;;;;;5019709;28;20073;-79
2024/01/03 02:29:31;;;;;;;5.85;1.40;;;9.20;99.90;;;;;;5056083;28;20396;-79
2024/01/03 02:31:56;;;;;;;5.20;1.27;;;9.20;99.90;;;;;;5027148;28;20079;-79
2024/01/03 02:34:22;;;;;;;5.68;1.15;;;9.10;99.90;;;;;;5025819;28;20034;-79
2024/01/03 02:36:50;;;;;;;7.35;1.63;;;9.10;99.90;;;;;;5025868;28;20136;-79
2024/01/03 02:39:16;;;;;;;8.75;1.77;;;9.10;99.90;;;;;;5031486;28;20496;-79
2024/01/03 02:41:42;;;;;;;7.68;1.75;;;9.00;99.90;;;;;;5021831;28;20076;-79
2024/01/03 02:44:07;;;;;;;6.78;1.70;;;9.00;99.90;;;;;;5024142;28;20052;-79
2024/01/03 02:46:33;;;;;;;7.03;1.52;;;9.00;99.90;;;;;;5025660;28;20057;-79
2024/01/03 02:48:59;;;;;;;8.25;2.00;;;9.00;99.90;;;;;;5041394;28;20116;-79
2024/01/03 02:51:24;;;;;;;7.38;1.88;;;8.90;99.90;;;;;;5028689;28;20489;-79
2024/01/03 02:53:50;;;;;;;8.75;1.70;;;8.90;99.90;;;;;;5020634;28;20042;-79
2024/01/03 02:56:16;;;;;;;10.10;2.03;;;8.90;99.90;;;;;;5039634;28;20110;-79
2024/01/03 02:58:42;;;;;;;9.70;2.20;;;8.90;99.90;;;;;;5027315;28;20037;-79
2024/01/03 03:01:07;;;;;;;10.13;2.03;;;9.00;99.90;;;;;;5024285;28;20124;-79
2024/01/03 03:03:33;;;;;;;12.52;2.40;;;9.00;99.90;;;;;;5020734;28;20497;-79
2024/01/03 03:06:00;;;;;;;12.52;2.70;;;9.00;99.90;;;;;;5034126;28;20053;-79
2024/01/03 03:08:25;;;;;;;12.90;2.60;;;9.00;99.90;;;;;;5024768;28;20041;-79
2024/01/03 03:10:51;;;;;;;10.55;2.38;;;9.20;99.90;;;;;;5019315;28;20515;-79
2024/01/03 03:13:17;;;;;;;11.88;2.60;;;9.20;99.90;;;;;;5026349;28;20095;-79
2024/01/03 03:15:43;;;;;;;7.20;1.10;;;9.20;99.90;;;;;;5025823;28;20555;-79
2024/01/03 03:18:09;;;;;;;13.10;2.80;;;9.30;99.90;;;;;;5030777;28;20260;-79
2024/01/03 03:20:35;;;;;;;17.73;3.43;;;9.30;99.90;;;;;;5028066;28;20033;-79
2024/01/03 03:23:00;;;;;;;5.47;1.20;;;9.20;99.90;;;;;;5020918;28;20492;-79
2024/01/03 03:25:26;;;;;;;14.98;3.55;;;9.20;99.90;;;;;;5041226;28;20045;-79
2024/01/03 03:27:52;;;;;;;17.20;3.20;;;9.20;99.90;;;;;;5026342;28;20069;-79
2024/01/03 03:30:17;;;;;;;16.10;3.83;;;9.10;99.90;;;;;;5028988;28;20052;-79
2024/01/03 03:32:45;;;;;;;17.70;3.67;;;9.10;99.90;;;;;;5033932;28;20112;-79
2024/01/03 03:35:12;;;;;;;17.92;4.13;;;9.20;99.90;;;;;;5029278;28;20053;-79
2024/01/03 03:37:41;;;;;;;22.15;4.20;;;9.20;99.90;;;;;;5028870;28;20323;-79
2024/01/03 03:40:10;;;;;;;17.02;3.88;;;9.30;99.90;;;;;;5025637;28;20038;-79
2024/01/03 03:42:35;;;;;;;19.80;4.38;;;9.30;99.90;;;;;;5023964;28;20511;-79
2024/01/03 03:45:01;;;;;;;21.63;4.38;;;9.40;99.90;;;;;;5042053;28;20128;-79
2024/01/03 03:47:26;;;;;;;15.10;3.47;;;9.50;99.90;;;;;;5028343;28;20428;-79
2024/01/03 03:49:52;;;;;;;13.68;3.30;;;9.60;99.90;;;;;;5034658;28;20116;-80
2024/01/03 03:52:18;;;;;;;19.58;4.72;;;9.60;99.90;;;;;;5024413;28;20056;-79
2024/01/03 03:54:44;;;;;;;18.90;4.18;;;9.80;99.90;;;;;;5071572;28;20084;-79
2024/01/03 03:57:09;;;;;;;18.55;3.67;;;9.90;99.90;;;;;;5025909;28;20500;-80
2024/01/03 03:59:35;;;;;;;14.98;3.25;;;10.00;99.90;;;;;;5026467;28;20049;-78
2024/01/03 04:02:00;;;;;;;15.35;3.50;;;9.90;99.90;;;;;;5030229;28;20119;-79
2024/01/03 04:04:26;;;;;;;16.45;3.35;;;10.00;99.90;;;;;;5021308;28;20050;-79
2024/01/03 04:06:52;;;;;;;16.65;3.60;;;10.00;99.90;;;;;;5025001;28;20087;-79
2024/01/03 04:09:19;;;;;;;16.52;3.65;;;10.00;99.90;;;;;;5025535;28;20116;-79
2024/01/03 04:11:45;;;;;;;19.67;3.97;;;10.10;99.90;;;;;;5024650;28;20080;-79
2024/01/03 04:14:11;;;;;;;15.70;3.83;;;10.10;99.90;;;;;;5027831;28;23565;-80
2024/01/03 04:16:37;;;;;;;13.35;3.53;;;10.20;99.90;;;;;;5024428;28;20046;-80
2024/01/03 04:19:03;;;;;;;14.93;3.70;;;10.10;99.90;;;;;;5029120;28;20731;-79
2024/01/03 04:21:30;;;;;;;18.25;4.03;;;10.20;99.90;;;;;;5028254;28;20092;-80
2024/01/03 04:23:55;;;;;;;16.00;3.38;;;10.10;99.90;;;;;;5026394;28;20041;-79
2024/01/03 04:26:22;;;;;;;16.45;3.72;;;10.20;99.90;;;;;;5027970;28;20060;-80
2024/01/03 04:28:48;;;;;;;18.43;3.43;;;10.10;99.90;;;;;;5025987;28;20064;-79
2024/01/03 04:31:13;;;;;;;9.25;1.67;;;10.10;99.90;;;;;;5028351;28;20049;-79
2024/01/03 04:33:39;;;;;;;18.27;3.67;;;10.10;99.90;;;;;;5027291;28;20592;-79
2024/01/03 04:36:05;;;;;;;15.18;3.63;;;10.10;99.90;;;;;;5026919;28;20034;-79
2024/01/03 04:38:31;;;;;;;19.55;4.18;;;10.10;99.90;;;;;;5027720;28;20116;-79
2024/01/03 04:40:56;;;;;;;17.75;3.85;;;10.10;99.90;;;;;;5024311;28;20746;-79
2024/01/03 04:43:22;;;;;;;8.45;1.27;;;10.10;99.90;;;;;;5027950;28;20098;-79
2024/01/03 04:45:47;;;;;;;18.77;3.55;;;10.10;99.90;;;;;;5028132;28;20049;-79
2024/01/03 04:48:14;;;;;;;18.33;4.35;;;10.10;99.90;;;;;;5021303;28;20066;-79
2024/01/03 04:50:39;;;;;;;16.40;3.60;;;10.10;99.90;;;;;;5024793;28;20515;-79
2024/01/03 04:53:05;;;;;;;17.13;3.80;;;10.00;99.90;;;;;;5051208;28;20046;-79
2024/01/03 04:55:31;;;;;;;19.20;3.80;;;9.90;99.90;;;;;;5014317;28;20068;-79
2024/01/03 04:57:58;;;;;;;12.85;3.15;;;9.80;99.90;;;;;;5029600;28;20045;-79
2024/01/03 05:00:24;;;;;;;16.80;3.58;;;9.90;99.90;;;;;;5027946;28;20069;-79
2024/01/03 05:02:51;;;;;;;18.05;3.45;;;9.90;99.90;;;;;;5025341;28;20510;-79
2024/01/03 05:05:17;;;;;;;14.98;3.28;;;10.00;99.90;;;;;;5030164;28;20048;-79
2024/01/03 05:07:42;;;;;;;18.65;3.78;;;10.00;99.90;;;;;;5024566;28;20684;-79
2024/01/03 05:10:09;;;;;;;17.90;4.20;;;10.00;99.90;;;;;;5060445;28;20041;-80
2024/01/03 05:12:36;;;;;;;19.83;4.65;;;10.00;99.90;;;;;;5030094;28;20041;-79
2024/01/03 05:15:03;;;;;;;20.53;3.97;;;10.10;99.90;;;;;;5031048;28;20128;-79
2024/01/03 05:17:29;;;;;;;15.52;3.90;;;10.00;99.90;;;;;;5027126;28;20050;-79
2024/01/03 05:19:56;;;;;;;15.18;3.63;;;10.10;99.90;;;;;;5023020;28;20033;-79
2024/01/03 05:22:22;;;;;;;18.95;3.83;;;10.10;99.90;;;;;;5018149;28;20037;-79
2024/01/03 05:24:47;;;;;;;16.45;4.13;;;10.10;99.90;;;;;;5023407;28;20050;-79
2024/01/03 05:27:13;;;;;;;18.75;3.92;;;10.00;99.90;;;;;;5025255;28;20049;-79
2024/01/03 05:29:38;;;;;;;22.67;4.57;;;10.10;99.90;;;;;;5018320;28;20594;-79
2024/01/03 05:32:05;;;;;;;22.38;4.55;;;10.10;99.90;;;;;;5028851;28;20802;-79
2024/01/03 05:34:31;;;;;;;20.48;4.20;;;10.00;99.90;;;;;;5026931;28;20136;-79
2024/01/03 05:36:57;;;;;;;18.85;4.20;;;10.00;99.90;;;;;;5026763;28;20124;-79
2024/01/03 05:39:22;;;;;;;18.15;3.72;;;10.00;99.90;;;;;;5023889;28;20077;-79
2024/01/03 05:41:49;;;;;;;20.40;4.63;;;10.00;99.90;;;;;;5028103;28;20040;-79
2024/01/03 05:44:15;;;;;;;20.88;4.50;;;10.00;99.90;;;;;;5025310;28;20072;-79
2024/01/03 05:46:42;;;;;;;18.40;4.32;;;9.90;99.90;;;;;;5026320;28;20416;-80
2024/01/03 05:49:08;;;;;;;19.77;4.35;;;9.80;99.90;;;;;;5026981;28;20050;-79
2024/01/03 05:51:33;;;;;;;21.23;4.63;;;9.80;99.90;;;;;;5027721;28;20056;-79
2024/01/03 05:54:00;;;;;;;21.67;4.97;;;9.70;99.90;;;;;;5021769;28;20128;-79
2024/01/03 05:56:27;;;;;;;19.77;4.60;;;9.60;99.90;;;;;;5040770;28;20087;-79
2024/01/03 05:58:53;;;;;;;17.92;4.38;;;9.60;99.90;;;;;;5025820;28;20069;-79
2024/01/03 06:01:18;;;;;;;22.65;4.88;;;9.50;99.90;;;;;;5045235;28;20054;-79
2024/01/03 06:03:44;;;;;;;24.13;4.93;;;9.50;99.90;;;;;;5024717;28;20119;-79
2024/01/03 06:06:10;;;;;;;23.88;4.82;;;9.50;99.90;;;;;;5018528;28;20042;-79
2024/01/03 06:08:36;;;;;;;8.98;1.90;;;9.50;99.90;;;;;;5025204;28;20091;-80
2024/01/03 06:11:01;;;;;;;19.80;4.57;;;9.40;99.90;;;;;;5024475;28;20585;-80
2024/01/03 06:13:28;;;;;;;14.50;3.47;;;9.40;99.90;;;;;;5037956;28;20136;-79
2024/01/03 06:15:54;;;;;;;17.55;3.97;;;9.50;99.90;;;;;;5025683;28;20045;-79
2024/01/03 06:18:21;;;;;;;16.95;4.10;;;9.60;99.90;;;;;;5025554;28;20095;-79
2024/01/03 06:20:47;;;;;;;23.33;4.55;;;9.70;99.90;;;;;;5028875;28;20041;-79
2024/01/03 06:23:12;;;;;;;20.38;4.10;;;9.70;99.90;;;;;;5028414;28;20057;-80
2024/01/03 06:25:38;;;;;;;19.52;4.18;;;9.80;99.90;;;;;;5022080;28;20041;-79
2024/01/03 06:28:04;;;;;;;18.33;4.22;;;9.90;99.90;;;;;;5030281;28;20460;-79
2024/01/03 06:30:30;;;;;;;19.93;4.30;;;9.90;99.90;;;;;;5029994;28;20136;-79
2024/01/03 06:32:56;;;;;;;17.70;3.70;;;9.80;99.90;;;;;;5042043;28;20136;-80
2024/01/03 06:35:21;;;;;;;19.05;3.72;;;9.90;99.90;;;;;;5039089;28;20044;-80
2024/01/03 06:37:47;;;;;;;19.55;4.75;;;10.00;99.90;;;;;;5031683;28;20045;-80
2024/01/03 06:40:13;;;;;;;17.45;3.90;;;10.10;99.90;;;;;;5027491;28;20042;-80
2024/01/03 06:42:39;;;;;;;17.43;3.63;;;10.10;99.90;;;;;;5029501;28;20099;-80
2024/01/03 06:45:05;;;;;;;15.15;3.42;;;10.10;99.90;;;;;;5029264;28;20045;-80
2024/01/03 06:47:31;;;;;;;15.82;3.55;;;10.10;99.90;;;;;;5030930;28;20037;-78
2024/01/03 06:49:57;;;;;;;16.55;4.30;;;10.20;99.90;;;;;;5026394;28;20477;-80
2024/01/03 06:52:22;;;;;;;16.75;4.03;;;10.20;99.90;;;;;;5022032;28;20049;-80
2024/01/03 06:54:49;;;;;;;18.85;3.63;;;10.20;99.90;;;;;;5026418;28;20508;-79
2024/01/03 06:57:15;;;;;;;20.73;4.20;;;10.20;99.90;;;;;;5025728;28;20041;-79
2024/01/03 06:59:41;;;;;;;21.27;4.03;;;10.20;99.90;;;;;;5058444;28;20041;-78
2024/01/03 07:02:07;;;;;;;19.83;4.50;;;10.20;99.90;;;;;;5023243;28;20434;-79
2024/01/03 07:04:33;;;;;;;19.17;3.90;;;10.20;99.90;;;;;;5019517;28;20520;-78
2024/01/03 07:06:59;;;;;;;16.73;3.65;;;10.10;99.90;;;;;;5025593;28;20046;-79
2024/01/03 07:09:25;;;;;;;20.75;4.15;;;10.10;99.90;;;;;;5039132;28;20039;-78
2024/01/03 07:11:50;;;;;;;20.35;4.47;;;10.10;99.90;;;;;;5030009;28;20451;-78
2024/01/03 07:14:16;;;;;;;23.95;5.07;;;10.10;99.90;;;;;;5025375;28;20937;-78
2024/01/03 07:16:42;;;;;;;20.83;4.45;;;10.10;99.90;;;;;;5050553;28;20053;-79
2024/01/03 07:19:07;;;;;;;20.08;4.30;;;10.10;99.90;;;;;;5020459;28;20045;-83
2024/01/03 07:21:33;;;;;;;23.20;4.38;;;10.20;99.90;;;;;;5019988;28;20084;-85
2024/01/03 07:23:59;;;;;;;19.83;4.95;;;10.10;99.90;;;;;;5018083;28;20651;-85
2024/01/03 07:26:25;;;;;;;19.95;4.65;;;10.10;99.90;;;;;;5025116;28;20076;-83
2024/01/03 07:28:51;;;;;;;18.85;4.60;;;10.10;99.90;;;;;;5030045;28;20065;-83
2024/01/03 07:31:16;;;;;;;16.15;3.83;;;10.10;99.90;;;;;;5027125;28;20449;-85
2024/01/03 07:33:42;;;;;;;23.08;4.82;;;10.10;99.90;;;;;;5018082;28;20061;-84
2024/01/03 07:36:08;;;;;;;23.13;4.85;;;10.10;99.90;;;;;;5022132;28;20033;-85
2024/01/03 07:38:34;;;;;;;21.05;4.93;;;10.10;99.90;;;;;;5024986;28;20081;-85
2024/01/03 07:41:03;;;;;;;23.55;5.18;;;10.00;99.90;;;;;;5022104;28;20075;-85
2024/01/03 07:43:29;;;;;;;23.42;5.10;;;9.90;99.90;;;;;;5017330;28;20080;-85
2024/01/03 07:45:56;;;;;;;19.52;5.25;;;9.90;99.90;;;;;;5056082;28;20049;-84
2024/01/03 07:48:22;;;;;;;22.63;4.72;;;9.90;99.90;;;;;;5019340;28;20053;-84
2024/01/03 07:50:47;;;;;;;21.48;4.95;;;9.90;99.90;;;;;;5052799;28;20055;-84
2024/01/03 07:53:16;;;;;;;23.40;5.07;;;9.90;99.90;;;;;;5036242;28;20049;-84
2024/01/03 07:55:42;;;;;;;24.00;5.35;;;9.90;99.90;;;;;;5023273;28;20049;-84
2024/01/03 07:58:08;;;;;;;22.27;5.28;;;9.80;99.90;;;;;;5056024;28;20046;-85
2024/01/03 08:00:37;;;;;;;19.30;4.60;;;9.80;99.90;;;;;;5021260;28;20066;-83
2024/01/03 08:03:04;;;;;;;24.13;6.15;;;9.80;99.90;;;;;;5023252;28;20049;-84
2024/01/03 08:05:30;;;;;;;24.38;4.72;;;9.80;99.90;;;;;;5021552;28;20068;-82
2024/01/03 08:07:56;;;;;;;26.25;4.35;;;9.80;99.90;;;;;;5052376;28;20067;-83
2024/01/03 08:10:21;;;;;;;21.80;5.53;;;9.80;99.90;;;;;;5028158;28;20042;-84
2024/01/03 08:12:47;;;;;;;22.55;5.53;;;9.80;99.90;;;;;;5024492;28;20041;-82
2024/01/03 08:15:13;;;;;;;21.35;4.47;;;9.80;99.90;;;;;;5020833;28;20083;-78
2024/01/03 08:17:38;;;;;;;17.85;4.55;;;9.90;99.90;;;;;;5042500;28;20563;-79
2024/01/03 08:20:04;;;;;;;22.85;4.88;;;9.90;99.90;;;;;;5061697;28;20049;-81
2024/01/03 08:22:30;;;;;;;23.60;4.95;;;9.90;99.90;;;;;;5029222;28;20050;-79
2024/01/03 08:24:56;;;;;;;22.17;5.00;;;9.90;99.90;;;;;;5028502;28;20487;-79
2024/01/03 08:27:22;;;;;;;23.13;5.28;;;9.90;99.90;;;;;;5030872;28;20071;-81
2024/01/03 08:29:48;;;;;;;26.40;5.53;;;9.90;99.90;;;;;;5027747;28;20041;-78
2024/01/03 08:32:13;;;;;;;24.95;4.88;;;9.90;99.90;;;;;;5051490;28;20046;-77
2024/01/03 08:34:39;;;;;;;13.70;1.80;;;9.80;99.90;;;;;;5030610;28;20175;-81
2024/01/03 08:37:05;;;;;;;19.48;4.38;;;9.80;99.90;;;;;;5026509;28;20069;-79
2024/01/03 08:39:30;;;;;;;21.95;4.88;;;9.80;99.90;;;;;;5018115;28;20125;-79
2024/01/03 08:41:56;;;;;;;30.58;5.65;;;9.80;99.90;;;;;;5023848;28;20056;-78
2024/01/03 08:44:22;;;;;;;31.23;5.93;;;9.70;99.90;;;;;;5062491;28;20187;-79
2024/01/03 08:46:47;;;;;;;19.42;2.40;;;9.70;99.90;;;;;;5061456;28;20065;-82
2024/01/03 08:49:13;;;;;;;20.75;5.00;;;9.60;99.90;;;;;;5024912;28;20069;-81
2024/01/03 08:51:44;;;;;;;24.90;5.18;;;9.50;99.90;;;;;;5033086;28;20072;-88
2024/01/03 08:54:10;;;;;;;21.15;4.85;;;9.60;99.90;;;;;;5036828;28;20064;-80
2024/01/03 08:56:38;;;;;;;19.85;4.50;;;9.50;99.90;;;;;;5061119;28;20049;-79
2024/01/03 08:59:04;;;;;;;20.75;4.68;;;9.50;99.90;;;;;;5060969;28;20414;-78
2024/01/03 09:01:31;;;;;;;21.92;4.80;;;9.50;99.90;;;;;;5043474;28;20079;-78
2024/01/03 09:03:56;;;;;;;18.30;4.78;;;9.50;99.90;;;;;;5045377;28;20547;-78
2024/01/03 09:06:25;;;;;;;20.98;5.47;;;9.50;99.90;;;;;;5027838;28;20038;-79
2024/01/03 09:08:51;;;;;;;23.77;5.00;;;9.50;99.90;;;;;;5024253;28;20044;-80
2024/01/03 09:11:24;;;;;;;22.73;4.70;;;9.50;99.90;;;;;;5026646;28;20382;-80
2024/01/03 09:13:50;;;;;;;20.05;4.35;;;9.50;99.90;;;;;;5023302;28;20512;-80
2024/01/03 09:16:22;;;;;;;20.02;4.20;;;9.60;99.90;;;;;;5017163;28;20046;-78
2024/01/03 09:18:48;;;;;;;19.30;3.97;;;9.50;99.90;;;;;;5065212;28;20045;-79
2024/01/03 09:21:15;;;;;;;14.93;3.90;;;9.70;99.90;;;;;;5013726;28;20045;-79
2024/01/03 09:23:41;;;;;;;16.88;3.60;;;9.60;99.90;;;;;;5035791;28;20060;-80
2024/01/03 09:26:09;;;;;;;15.10;3.55;;;9.60;99.90;;;;;;5033456;28;20041;-80
2024/01/03 09:28:37;;;;;;;16.50;3.47;;;9.60;99.90;;;;;;5030176;28;20516;-82
2024/01/03 09:31:03;;;;;;;15.95;3.28;;;9.60;99.90;;;;;;5027147;28;20042;-82
2024/01/03 09:33:28;;;;;;;16.10;4.15;;;9.60;99.90;;;;;;5014026;28;20493;-80
2024/01/03 09:35:54;;;;;;;18.92;3.53;;;9.60;99.90;;;;;;5060745;28;20069;-81
2024/01/03 09:38:20;;;;;;;21.77;4.25;;;9.60;99.90;;;;;;5033797;28;20034;-77
2024/01/03 09:40:46;;;;;;;16.25;4.70;;;9.60;99.90;;;;;;5035821;28;20072;-78
2024/01/03 09:43:12;;;;;;;16.02;3.53;;;9.70;99.90;;;;;;5029053;28;20037;-78
2024/01/03 09:45:39;;;;;;;16.23;3.70;;;9.70;99.90;;;;;;5043250;28;20135;-79
2024/01/03 09:48:06;;;;;;;14.65;3.40;;;9.70;99.90;;;;;;5055255;28;20112;-80
2024/01/03 09:50:32;;;;;;;16.40;3.85;;;9.70;99.90;;;;;;5025900;28;20404;-77
2024/01/03 09:53:00;;;;;;;15.45;4.00;;;9.70;99.90;;;;;;5028649;28;20543;-77
2024/01/03 09:55:27;;;;;;;15.68;3.58;;;9.70;99.90;;;;;;5031874;28;20046;-77
2024/01/03 09:57:54;;;;;;;14.52;3.55;;;9.70;99.90;;;;;;5020171;28;20436;-77
2024/01/03 10:00:20;;;;;;;14.20;3.28;;;9.80;99.90;;;;;;5030371;28;20114;-77
2024/01/03 10:02:47;;;;;;;18.13;3.45;;;9.70;99.90;;;;;;5031726;28;20049;-76
2024/01/03 10:05:20;;;;;;;17.52;4.30;;;9.80;99.90;;;;;;5063188;28;20044;-76
2024/01/03 10:07:47;;;;;;;17.23;4.40;;;9.80;99.90;;;;;;5035885;28;20054;-76
2024/01/03 10:10:13;;;;;;;18.27;4.13;;;9.80;99.90;;;;;;5031663;28;20045;-75
2024/01/03 10:12:39;;;;;;;18.67;4.35;;;9.80;99.90;;;;;;5032806;28;20037;-78
2024/01/03 10:15:15;;;;;;;20.15;3.80;;;9.90;99.90;;;;;;5063736;28;20046;-80
2024/01/03 10:17:43;;;;;;;20.77;4.18;;;9.90;99.90;;;;;;5061638;28;20095;-81
2024/01/03 10:20:27;;;;;;;21.33;4.50;;;9.90;99.90;;;;;;5063503;28;20105;-81
2024/01/03 10:23:09;;;;;;;20.00;4.85;;;9.90;99.90;;;;;;5030783;28;20072;-79
2024/01/03 10:25:35;;;;;;;22.00;4.35;;;9.90;99.90;;;;;;5037187;28;20475;-81
2024/01/03 10:28:09;;;;;;;17.98;4.28;;;9.90;99.90;;;;;;5033119;28;20544;-80
2024/01/03 10:30:35;;;;;;;21.10;4.82;;;9.90;99.90;;;;;;5029803;28;20488;-81
2024/01/03 10:33:08;;;;;;;20.25;4.53;;;9.90;99.90;;;;;;5034731;28;20037;-80
2024/01/03 10:35:36;;;;;;;19.10;4.43;;;10.00;99.90;;;;;;5031371;28;20047;-78
2024/01/03 10:38:05;;;;;;;24.50;4.95;;;10.00;99.90;;;;;;5024506;28;20442;-79
2024/01/03 10:40:32;;;;;;;19.83;4.47;;;10.00;99.90;;;;;;5025770;28;20124;-79
2024/01/03 10:42:59;;;;;;;20.27;4.50;;;10.00;99.90;;;;;;5030693;28;20048;-82
2024/01/03 10:45:26;;;;;;;21.35;4.60;;;10.00;99.90;;;;;;5034432;28;20045;-82
2024/01/03 10:47:52;;;;;;;20.92;4.68;;;9.90;99.90;;;;;;5031125;28;20124;-78
2024/01/03 10:50:18;;;;;;;24.95;5.57;;;10.00;99.90;;;;;;5030017;28;20282;-80
2024/01/03 10:52:45;;;;;;;21.20;4.75;;;10.00;99.90;;;;;;5028932;28;20084;-81
2024/01/03 10:55:24;;;;;;;23.98;5.22;;;10.00;99.90;;;;;;5030465;28;20044;-77
2024/01/03 10:57:58;;;;;;;24.05;5.13;;;10.00;99.90;;;;;;5063200;28;20061;-80
2024/01/03 11:00:44;;;;;;;24.90;5.47;;;10.00;99.90;;;;;;5030813;28;20041;-78
2024/01/03 11:03:37;;;;;;;22.25;4.40;;;10.00;99.90;;;;;;5044557;28;20127;-80
2024/01/03 11:06:23;;;;;;;19.33;4.93;;;10.00;99.90;;;;;;5039273;28;20108;-77
2024/01/03 11:08:54;;;;;;;16.00;4.15;;;10.00;99.90;;;;;;5026407;28;20088;-78
2024/01/03 11:11:39;;;;;;;14.68;4.07;;;10.00;99.90;;;;;;5046197;28;20045;-82
2024/01/03 11:14:17;;;;;;;17.08;3.80;;;10.00;99.90;;;;;;5028497;28;20128;-75
2024/01/03 11:16:42;;;;;;;14.63;3.28;;;10.00;99.90;;;;;;5046492;28;20079;-81
2024/01/03 11:19:13;;;;;;;13.90;3.40;;;9.90;99.90;;;;;;5029713;28;20067;-78
2024/01/03 11:21:42;;;;;;;15.75;3.45;;;10.00;99.90;;;;;;5030137;28;20556;-81
2024/01/03 11:24:07;;;;;;;10.70;2.60;;;9.90;99.90;;;;;;5036200;28;20048;-78
2024/01/03 11:26:52;;;;;;;14.25;3.00;;;9.80;99.90;;;;;;5069067;28;20041;-80
2024/01/03 11:29:41;;;;;;;10.98;2.90;;;9.90;99.90;;;;;;5028608;28;20485;-77
2024/01/03 11:32:09;;;;;;;11.48;2.80;;;9.80;99.90;;;;;;5062451;28;20834;-83
2024/01/03 11:34:44;;;;;;;13.45;3.00;;;9.70;99.90;;;;;;5041493;28;20053;-88
2024/01/03 11:37:18;;;;;;;12.90;3.30;;;9.70;99.90;;;;;;5025654;28;20076;-79
2024/01/03 11:39:52;;;;;;;9.60;2.42;;;9.60;99.90;;;;;;5049933;28;20045;-82
2024/01/03 11:42:25;;;;;;;9.23;2.28;;;9.50;99.90;;;;;;5030425;28;20071;-84
2024/01/03 11:45:04;;;;;;;10.10;2.22;;;9.50;99.90;;;;;;5044003;28;20080;-84
2024/01/03 11:47:35;;;;;;;9.00;2.15;;;9.50;99.90;;;;;;5027573;28;20073;-76
2024/01/03 11:50:03;;;;;;;8.35;2.00;;;9.40;99.90;;;;;;5028102;28;20091;-76
2024/01/03 11:52:33;;;;;;;5.38;1.00;;;9.40;99.90;;;;;;5011083;28;20136;-77
2024/01/03 11:55:06;;;;;;;6.32;1.55;;;9.40;99.90;;;;;;5022607;28;20060;-77
2024/01/03 11:57:33;;;;;;;10.65;2.17;;;9.40;99.90;;;;;;5023249;28;20076;-78
2024/01/03 12:00:03;;;;;;;11.55;2.45;;;9.40;99.90;;;;;;5025551;28;20052;-77
2024/01/03 12:02:29;;;;;;;11.50;2.38;;;9.40;99.90;;;;;;5030967;28;20067;-80
2024/01/03 12:05:07;;;;;;;8.30;2.35;;;9.40;99.90;;;;;;5026720;28;20046;-80
2024/01/03 12:07:36;;;;;;;8.88;2.53;;;9.30;99.90;;;;;;5034871;28;20123;-81
2024/01/03 12:10:04;;;;;;;9.25;2.05;;;9.40;99.90;;;;;;5017527;28;20067;-80
2024/01/03 12:12:30;;;;;;;7.68;2.00;;;9.40;99.90;;;;;;5029924;28;20572;-81
2024/01/03 12:14:56;;;;;;;8.35;2.15;;;9.40;99.90;;;;;;5028228;28;20038;-80
2024/01/03 12:17:26;;;;;;;9.97;1.90;;;9.40;99.90;;;;;;5025438;28;20049;-81
2024/01/03 12:19:52;;;;;;;11.82;2.35;;;9.40;99.90;;;;;;5026856;28;20288;-81
2024/01/03 12:22:23;;;;;;;10.38;2.70;;;9.40;99.90;;;;;;5030102;28;20029;-81
2024/01/03 12:24:48;;;;;;;9.25;2.20;;;9.40;99.90;;;;;;5036451;28;20485;-81
2024/01/03 12:27:25;;;;;;;9.73;2.30;;;9.40;99.90;;;;;;5035554;28;20083;-81
2024/01/03 12:29:51;;;;;;;10.98;2.72;;;9.40;99.90;;;;;;5029780;28;20045;-81
2024/01/03 12:32:18;;;;;;;13.18;3.85;;;9.40;99.90;;;;;;5058578;28;20052;-79
2024/01/03 12:34:45;;;;;;;;;;;9.40;99.90;;;;;;5030951;28;20120;-79
2024/01/03 12:37:11;;;;;;;11.98;4.28;;;9.30;99.90;;;;;;5028413;28;19925;-79
2024/01/03 12:39:37;;;;;;;9.20;2.35;;;9.30;99.90;;;;;;5027211;28;20481;-79
2024/01/03 12:42:10;;;;;;;14.45;2.97;;;9.30;99.90;;;;;;5025931;28;20069;-79
2024/01/03 12:44:44;;;;;;;9.45;2.30;;;9.30;99.90;;;;;;5044539;28;20041;-79
2024/01/03 12:47:11;;;;;;;8.25;1.98;;;9.30;99.90;;;;;;5058355;28;20049;-82
2024/01/03 12:49:40;;;;;;;11.82;2.75;;;9.30;99.90;;;;;;5027663;28;20067;-82